Terminal Aerodrome Forecast
Issued by NWS Mt. Holly, NJ

Home | Current Version | Previous Version | Text Only | Print | Product List | Glossary On
Versions: 1 2 3 4 5 6 7 8 9 10 11 12 13 14 15 16 17 18 19
000
FTUS41 KPHI 280300 AAC
TAFILG
TAF AMD
KILG 280347Z 2804/2824 27020G35KT 3SM +TSRA OVC025CB
     FM280500 22005KT P6SM BKN100
     FM280800 24006KT 6SM BR BKN120
     FM281300 28016G24KT P6SM BKN040
     FM282300 30008KT P6SM SCT200=

USA.gov is the U.S. government's official web portal to all federal, state and local government web resources and services.